Scranton/Wilkes-Barre, Pennsylvania
Current Conditions -  °F | °C
As of 4:54 AM on Friday 21 Nov 2014 (Local Time) from KAVP Reporting Station
Clear Clear  
Wind Chill: 12°   Ceiling: Unl
Heat Index: 20°   Visibility: 10mi
Dew Point:   Wind: 6mph
Humidity: 62%   Direction: 240°WSW
Pressure: 30.1"   Gusts: NA
Location:  41.33°N, 75.73°W
Report Text: KAVP 210954Z AUTO 24005KT 10SM CLR M07/M13 A3010 RMK AO2 SLP204 T10671128
Loading
Personal Weather Stations






























Interactive Weather Map New forecast layout! Learn more

10-Day Weather Forecast

Advertisements
Track Severe Weather on mobile